sensor_id;sensor_type;location;lat;lon;timestamp;temperature;humidity
33564;DHT22;19894;48.452;11.494;2022-10-04T00:01:21;20.10;44.90
33564;DHT22;19894;48.452;11.494;2022-10-04T00:03:52;20.10;45.10
33564;DHT22;19894;48.452;11.494;2022-10-04T00:06:26;20.10;45.70
33564;DHT22;19894;48.452;11.494;2022-10-04T00:08:59;20.10;45.70
33564;DHT22;19894;48.452;11.494;2022-10-04T00:11:32;20.10;46.00
33564;DHT22;19894;48.452;11.494;2022-10-04T00:14:06;20.10;46.10
33564;DHT22;19894;48.452;11.494;2022-10-04T00:16:35;20.10;45.90
33564;DHT22;19894;48.452;11.494;2022-10-04T00:24:34;20.00;46.00
33564;DHT22;19894;48.452;11.494;2022-10-04T00:29:37;20.00;46.30
33564;DHT22;19894;48.452;11.494;2022-10-04T00:37:01;20.00;45.60
33564;DHT22;19894;48.452;11.494;2022-10-04T00:42:13;20.00;45.50
33564;DHT22;19894;48.452;11.494;2022-10-04T00:47:25;20.00;45.10
33564;DHT22;19894;48.452;11.494;2022-10-04T00:53:00;20.00;44.80
33564;DHT22;19894;48.452;11.494;2022-10-04T00:55:37;20.00;45.10
33564;DHT22;19894;48.452;11.494;2022-10-04T00:58:07;20.10;45.30
33564;DHT22;19894;48.452;11.494;2022-10-04T01:00:37;20.10;44.60
33564;DHT22;19894;48.452;11.494;2022-10-04T01:03:08;20.10;44.80
33564;DHT22;19894;48.452;11.494;2022-10-04T01:05:37;20.10;44.90
33564;DHT22;19894;48.452;11.494;2022-10-04T01:08:11;20.10;44.80
33564;DHT22;19894;48.452;11.494;2022-10-04T01:13:18;20.10;45.10
33564;DHT22;19894;48.452;11.494;2022-10-04T01:18:27;20.00;45.70
33564;DHT22;19894;48.452;11.494;2022-10-04T01:29:18;20.00;45.70
33564;DHT22;19894;48.452;11.494;2022-10-04T01:31:50;20.00;45.70
33564;DHT22;19894;48.452;11.494;2022-10-04T01:34:18;20.00;45.60
33564;DHT22;19894;48.452;11.494;2022-10-04T01:36:46;20.00;45.60
33564;DHT22;19894;48.452;11.494;2022-10-04T01:39:13;20.00;45.50
33564;DHT22;19894;48.452;11.494;2022-10-04T01:44:21;20.00;45.60
33564;DHT22;19894;48.452;11.494;2022-10-04T01:46:49;20.00;45.40
33564;DHT22;19894;48.452;11.494;2022-10-04T01:49:19;20.00;45.10
33564;DHT22;19894;48.452;11.494;2022-10-04T01:54:35;20.00;44.60
33564;DHT22;19894;48.452;11.494;2022-10-04T02:00:05;20.00;43.70
33564;DHT22;19894;48.452;11.494;2022-10-04T02:02:36;20.10;44.80
33564;DHT22;19894;48.452;11.494;2022-10-04T02:05:07;20.00;44.20
33564;DHT22;19894;48.452;11.494;2022-10-04T02:07:35;20.00;44.20
33564;DHT22;19894;48.452;11.494;2022-10-04T02:10:06;20.00;43.80
33564;DHT22;19894;48.452;11.494;2022-10-04T02:12:34;20.00;44.10
33564;DHT22;19894;48.452;11.494;2022-10-04T02:15:02;20.00;44.60
33564;DHT22;19894;48.452;11.494;2022-10-04T02:17:32;20.00;44.70
33564;DHT22;19894;48.452;11.494;2022-10-04T02:20:07;20.10;45.10
33564;DHT22;19894;48.452;11.494;2022-10-04T02:22:33;20.00;45.10
33564;DHT22;19894;48.452;11.494;2022-10-04T02:25:00;20.00;45.20
33564;DHT22;19894;48.452;11.494;2022-10-04T02:27:27;20.00;44.50
33564;DHT22;19894;48.452;11.494;2022-10-04T02:30:09;20.00;44.70
33564;DHT22;19894;48.452;11.494;2022-10-04T02:32:36;20.00;45.10
33564;DHT22;19894;48.452;11.494;2022-10-04T02:35:26;20.00;45.20
33564;DHT22;19894;48.452;11.494;2022-10-04T02:38:22;20.00;45.20
33564;DHT22;19894;48.452;11.494;2022-10-04T02:46:01;20.00;44.70
33564;DHT22;19894;48.452;11.494;2022-10-04T02:48:57;20.00;45.10
33564;DHT22;19894;48.452;11.494;2022-10-04T02:54:26;20.00;44.30
33564;DHT22;19894;48.452;11.494;2022-10-04T02:56:55;20.00;44.30
33564;DHT22;19894;48.452;11.494;2022-10-04T02:59:22;20.00;44.20
33564;DHT22;19894;48.452;11.494;2022-10-04T03:01:52;20.00;44.30
33564;DHT22;19894;48.452;11.494;2022-10-04T03:04:22;20.00;44.10
33564;DHT22;19894;48.452;11.494;2022-10-04T03:06:49;20.00;43.80
33564;DHT22;19894;48.452;11.494;2022-10-04T03:09:16;20.00;43.30
33564;DHT22;19894;48.452;11.494;2022-10-04T03:11:43;20.00;43.60
33564;DHT22;19894;48.452;11.494;2022-10-04T03:14:23;20.00;43.10
33564;DHT22;19894;48.452;11.494;2022-10-04T03:16:52;20.00;43.40
33564;DHT22;19894;48.452;11.494;2022-10-04T03:19:21;20.00;44.10
33564;DHT22;19894;48.452;11.494;2022-10-04T03:21:50;20.00;44.20
33564;DHT22;19894;48.452;11.494;2022-10-04T03:24:29;20.00;44.20
33564;DHT22;19894;48.452;11.494;2022-10-04T03:26:57;20.00;44.20
33564;DHT22;19894;48.452;11.494;2022-10-04T03:29:27;20.00;44.00
33564;DHT22;19894;48.452;11.494;2022-10-04T03:31:55;20.00;44.40
33564;DHT22;19894;48.452;11.494;2022-10-04T03:34:25;20.00;44.50
33564;DHT22;19894;48.452;11.494;2022-10-04T03:36:53;20.00;44.50
33564;DHT22;19894;48.452;11.494;2022-10-04T03:39:26;20.00;44.40
33564;DHT22;19894;48.452;11.494;2022-10-04T03:41:52;20.00;45.10
33564;DHT22;19894;48.452;11.494;2022-10-04T03:44:18;20.00;44.50
33564;DHT22;19894;48.452;11.494;2022-10-04T03:46:46;20.00;44.40
33564;DHT22;19894;48.452;11.494;2022-10-04T03:49:17;20.00;44.30
33564;DHT22;19894;48.452;11.494;2022-10-04T03:51:50;20.00;44.00
33564;DHT22;19894;48.452;11.494;2022-10-04T03:54:18;20.00;44.50
33564;DHT22;19894;48.452;11.494;2022-10-04T03:56:45;20.00;44.20
33564;DHT22;19894;48.452;11.494;2022-10-04T03:59:15;20.00;44.10
33564;DHT22;19894;48.452;11.494;2022-10-04T04:05:03;20.00;43.80
33564;DHT22;19894;48.452;11.494;2022-10-04T04:07:43;20.00;43.90
33564;DHT22;19894;48.452;11.494;2022-10-04T04:10:22;20.00;43.90
33564;DHT22;19894;48.452;11.494;2022-10-04T04:12:56;20.00;43.50
33564;DHT22;19894;48.452;11.494;2022-10-04T04:15:27;20.00;43.20
33564;DHT22;19894;48.452;11.494;2022-10-04T04:17:54;20.00;43.10
33564;DHT22;19894;48.452;11.494;2022-10-04T04:20:25;20.00;42.70
33564;DHT22;19894;48.452;11.494;2022-10-04T04:23:01;20.00;42.50
33564;DHT22;19894;48.452;11.494;2022-10-04T04:25:31;20.00;42.40
33564;DHT22;19894;48.452;11.494;2022-10-04T04:31:05;20.00;42.80
33564;DHT22;19894;48.452;11.494;2022-10-04T04:33:42;20.00;43.70
33564;DHT22;19894;48.452;11.494;2022-10-04T04:36:11;20.00;43.80
33564;DHT22;19894;48.452;11.494;2022-10-04T04:38:37;20.00;43.80
33564;DHT22;19894;48.452;11.494;2022-10-04T04:41:27;20.00;43.90
33564;DHT22;19894;48.452;11.494;2022-10-04T04:43:56;20.00;44.00
33564;DHT22;19894;48.452;11.494;2022-10-04T04:46:21;20.00;44.10
33564;DHT22;19894;48.452;11.494;2022-10-04T04:48:48;20.00;44.00
33564;DHT22;19894;48.452;11.494;2022-10-04T04:51:20;20.00;44.10
33564;DHT22;19894;48.452;11.494;2022-10-04T04:53:47;20.00;44.10
33564;DHT22;19894;48.452;11.494;2022-10-04T04:56:17;20.00;43.90
33564;DHT22;19894;48.452;11.494;2022-10-04T04:58:45;20.00;43.80
33564;DHT22;19894;48.452;11.494;2022-10-04T05:01:30;20.00;43.80
33564;DHT22;19894;48.452;11.494;2022-10-04T05:06:30;20.00;43.80
33564;DHT22;19894;48.452;11.494;2022-10-04T05:08:57;20.00;43.50
33564;DHT22;19894;48.452;11.494;2022-10-04T05:11:27;20.00;43.40
33564;DHT22;19894;48.452;11.494;2022-10-04T05:13:56;20.00;43.30
33564;DHT22;19894;48.452;11.494;2022-10-04T05:16:53;20.00;43.20
33564;DHT22;19894;48.452;11.494;2022-10-04T05:19:23;20.00;43.00
33564;DHT22;19894;48.452;11.494;2022-10-04T05:21:53;20.00;43.10
33564;DHT22;19894;48.452;11.494;2022-10-04T05:24:53;20.00;43.70
33564;DHT22;19894;48.452;11.494;2022-10-04T05:30:13;20.00;42.40
33564;DHT22;19894;48.452;11.494;2022-10-04T05:33:02;20.00;42.20
33564;DHT22;19894;48.452;11.494;2022-10-04T05:35:41;20.00;42.30
33564;DHT22;19894;48.452;11.494;2022-10-04T05:41:14;20.00;42.30
33564;DHT22;19894;48.452;11.494;2022-10-04T05:43:45;20.00;42.50
33564;DHT22;19894;48.452;11.494;2022-10-04T05:46:21;20.00;42.90
33564;DHT22;19894;48.452;11.494;2022-10-04T05:49:12;20.00;43.30
33564;DHT22;19894;48.452;11.494;2022-10-04T05:52:02;20.00;43.60
33564;DHT22;19894;48.452;11.494;2022-10-04T05:54:33;20.00;43.60
33564;DHT22;19894;48.452;11.494;2022-10-04T05:57:09;20.00;43.70
33564;DHT22;19894;48.452;11.494;2022-10-04T06:05:22;20.00;43.80
33564;DHT22;19894;48.452;11.494;2022-10-04T06:08:00;19.90;43.70
33564;DHT22;19894;48.452;11.494;2022-10-04T06:16:55;19.90;43.30
33564;DHT22;19894;48.452;11.494;2022-10-04T06:22:21;19.90;43.20
33564;DHT22;19894;48.452;11.494;2022-10-04T06:24:51;19.90;43.60
33564;DHT22;19894;48.452;11.494;2022-10-04T06:27:32;19.90;43.20
33564;DHT22;19894;48.452;11.494;2022-10-04T06:30:14;20.00;42.80
33564;DHT22;19894;48.452;11.494;2022-10-04T06:49:55;20.00;42.70
33564;DHT22;19894;48.452;11.494;2022-10-04T07:00:43;20.00;43.80
33564;DHT22;19894;48.452;11.494;2022-10-04T07:03:21;20.00;43.80
33564;DHT22;19894;48.452;11.494;2022-10-04T07:08:26;20.00;44.60
33564;DHT22;19894;48.452;11.494;2022-10-04T07:11:17;20.00;43.90
33564;DHT22;19894;48.452;11.494;2022-10-04T07:14:23;20.00;43.90
33564;DHT22;19894;48.452;11.494;2022-10-04T07:16:55;20.00;43.90
33564;DHT22;19894;48.452;11.494;2022-10-04T07:27:51;20.00;43.70
33564;DHT22;19894;48.452;11.494;2022-10-04T07:33:47;19.90;43.60
33564;DHT22;19894;48.452;11.494;2022-10-04T07:36:31;20.00;43.50
33564;DHT22;19894;48.452;11.494;2022-10-04T07:41:57;20.00;43.50
33564;DHT22;19894;48.452;11.494;2022-10-04T07:44:36;20.00;43.50
33564;DHT22;19894;48.452;11.494;2022-10-04T07:47:23;20.00;43.60
33564;DHT22;19894;48.452;11.494;2022-10-04T07:49:54;20.00;43.60
33564;DHT22;19894;48.452;11.494;2022-10-04T07:52:36;20.00;43.70
33564;DHT22;19894;48.452;11.494;2022-10-04T07:55:24;20.00;43.80
33564;DHT22;19894;48.452;11.494;2022-10-04T08:00:58;20.00;43.90
33564;DHT22;19894;48.452;11.494;2022-10-04T08:04:10;20.00;44.00
33564;DHT22;19894;48.452;11.494;2022-10-04T08:06:58;20.00;44.10
33564;DHT22;19894;48.452;11.494;2022-10-04T08:12:14;20.00;44.30
33564;DHT22;19894;48.452;11.494;2022-10-04T08:21:22;20.00;44.50
33564;DHT22;19894;48.452;11.494;2022-10-04T08:23:53;20.00;44.60
33564;DHT22;19894;48.452;11.494;2022-10-04T08:26:48;20.00;44.70
33564;DHT22;19894;48.452;11.494;2022-10-04T08:39:16;20.00;45.30
33564;DHT22;19894;48.452;11.494;2022-10-04T08:44:18;20.00;45.50
33564;DHT22;19894;48.452;11.494;2022-10-04T08:52:40;20.00;45.80
33564;DHT22;19894;48.452;11.494;2022-10-04T09:03:47;20.10;46.10
33564;DHT22;19894;48.452;11.494;2022-10-04T09:21:09;20.00;46.60
33564;DHT22;19894;48.452;11.494;2022-10-04T09:44:30;20.00;47.20
33564;DHT22;19894;48.452;11.494;2022-10-04T09:57:59;20.10;47.70
33564;DHT22;19894;48.452;11.494;2022-10-04T10:09:04;20.10;47.40
33564;DHT22;19894;48.452;11.494;2022-10-04T10:12:12;20.10;47.30
33564;DHT22;19894;48.452;11.494;2022-10-04T10:15:14;20.10;47.30
33564;DHT22;19894;48.452;11.494;2022-10-04T10:18:10;20.10;47.40
33564;DHT22;19894;48.452;11.494;2022-10-04T10:24:03;20.10;47.40
33564;DHT22;19894;48.452;11.494;2022-10-04T10:26:51;20.10;47.40
33564;DHT22;19894;48.452;11.494;2022-10-04T10:43:57;20.00;47.20
33564;DHT22;19894;48.452;11.494;2022-10-04T10:46:34;20.10;47.40
33564;DHT22;19894;48.452;11.494;2022-10-04T10:49:19;20.10;47.30
33564;DHT22;19894;48.452;11.494;2022-10-04T10:57:20;20.10;47.50
33564;DHT22;19894;48.452;11.494;2022-10-04T11:00:12;20.10;47.50
33564;DHT22;19894;48.452;11.494;2022-10-04T11:06:19;20.10;47.70
33564;DHT22;19894;48.452;11.494;2022-10-04T11:09:26;20.10;47.60
33564;DHT22;19894;48.452;11.494;2022-10-04T11:31:31;20.10;47.50
33564;DHT22;19894;48.452;11.494;2022-10-04T11:34:28;20.10;47.50
33564;DHT22;19894;48.452;11.494;2022-10-04T11:37:20;20.10;47.50
33564;DHT22;19894;48.452;11.494;2022-10-04T11:45:21;20.10;47.60
33564;DHT22;19894;48.452;11.494;2022-10-04T11:48:12;20.10;47.60
33564;DHT22;19894;48.452;11.494;2022-10-04T11:50:52;20.10;47.60
33564;DHT22;19894;48.452;11.494;2022-10-04T12:12:04;20.10;47.60
33564;DHT22;19894;48.452;11.494;2022-10-04T12:15:02;20.10;47.60
33564;DHT22;19894;48.452;11.494;2022-10-04T12:26:23;20.10;47.60
33564;DHT22;19894;48.452;11.494;2022-10-04T12:29:29;20.10;47.60
33564;DHT22;19894;48.452;11.494;2022-10-04T12:32:08;20.10;47.60
33564;DHT22;19894;48.452;11.494;2022-10-04T12:35:08;20.10;47.70
33564;DHT22;19894;48.452;11.494;2022-10-04T12:40:51;20.10;47.70
33564;DHT22;19894;48.452;11.494;2022-10-04T12:57:17;20.10;48.00
33564;DHT22;19894;48.452;11.494;2022-10-04T12:59:56;20.10;48.00
33564;DHT22;19894;48.452;11.494;2022-10-04T13:08:15;20.10;48.00
33564;DHT22;19894;48.452;11.494;2022-10-04T13:10:52;20.10;48.00
33564;DHT22;19894;48.452;11.494;2022-10-04T13:22:20;20.10;48.00
33564;DHT22;19894;48.452;11.494;2022-10-04T13:30:05;20.10;48.00
33564;DHT22;19894;48.452;11.494;2022-10-04T13:35:31;20.10;48.10
33564;DHT22;19894;48.452;11.494;2022-10-04T13:46:36;20.10;48.00
33564;DHT22;19894;48.452;11.494;2022-10-04T13:49:19;20.10;47.90
33564;DHT22;19894;48.452;11.494;2022-10-04T14:09:49;20.10;48.00
33564;DHT22;19894;48.452;11.494;2022-10-04T14:14:57;20.10;48.10
33564;DHT22;19894;48.452;11.494;2022-10-04T14:20:33;20.10;48.10
33564;DHT22;19894;48.452;11.494;2022-10-04T14:49:24;20.10;47.80
33564;DHT22;19894;48.452;11.494;2022-10-04T15:00:21;20.10;47.70
33564;DHT22;19894;48.452;11.494;2022-10-04T15:05:57;20.10;47.60
33564;DHT22;19894;48.452;11.494;2022-10-04T15:14:41;20.10;47.60
33564;DHT22;19894;48.452;11.494;2022-10-04T15:17:31;20.10;47.50
33564;DHT22;19894;48.452;11.494;2022-10-04T15:20:14;20.10;47.50
33564;DHT22;19894;48.452;11.494;2022-10-04T15:22:50;20.10;48.00
33564;DHT22;19894;48.452;11.494;2022-10-04T15:25:45;20.10;47.50
33564;DHT22;19894;48.452;11.494;2022-10-04T15:28:33;20.10;47.50
33564;DHT22;19894;48.452;11.494;2022-10-04T15:39:52;20.10;47.70
33564;DHT22;19894;48.452;11.494;2022-10-04T15:42:30;20.10;47.70
33564;DHT22;19894;48.452;11.494;2022-10-04T16:00:55;20.10;47.90
33564;DHT22;19894;48.452;11.494;2022-10-04T16:17:07;20.10;48.60
33564;DHT22;19894;48.452;11.494;2022-10-04T16:22:34;20.10;48.20
33564;DHT22;19894;48.452;11.494;2022-10-04T16:30:26;20.10;48.40
33564;DHT22;19894;48.452;11.494;2022-10-04T16:48:36;20.10;48.50
33564;DHT22;19894;48.452;11.494;2022-10-04T16:56:30;20.10;48.70
33564;DHT22;19894;48.452;11.494;2022-10-04T16:59:10;20.10;48.70
33564;DHT22;19894;48.452;11.494;2022-10-04T17:02:25;20.10;48.70
33564;DHT22;19894;48.452;11.494;2022-10-04T17:05:02;20.10;48.70
33564;DHT22;19894;48.452;11.494;2022-10-04T17:16:11;20.10;48.90
33564;DHT22;19894;48.452;11.494;2022-10-04T17:30:23;20.10;48.90
33564;DHT22;19894;48.452;11.494;2022-10-04T17:38:42;20.10;49.00
33564;DHT22;19894;48.452;11.494;2022-10-04T17:47:00;20.10;49.00
33564;DHT22;19894;48.452;11.494;2022-10-04T17:52:41;20.10;48.90
33564;DHT22;19894;48.452;11.494;2022-10-04T17:55:55;20.10;48.90
33564;DHT22;19894;48.452;11.494;2022-10-04T17:58:43;20.10;48.90
33564;DHT22;19894;48.452;11.494;2022-10-04T18:12:10;20.10;48.80
33564;DHT22;19894;48.452;11.494;2022-10-04T18:17:32;20.10;48.80
33564;DHT22;19894;48.452;11.494;2022-10-04T18:20:26;20.10;48.80
33564;DHT22;19894;48.452;11.494;2022-10-04T18:23:25;20.10;48.80
33564;DHT22;19894;48.452;11.494;2022-10-04T18:26:18;20.10;48.70
33564;DHT22;19894;48.452;11.494;2022-10-04T18:28:45;20.10;48.70
33564;DHT22;19894;48.452;11.494;2022-10-04T18:34:16;20.10;48.50
33564;DHT22;19894;48.452;11.494;2022-10-04T18:39:46;20.10;48.40
33564;DHT22;19894;48.452;11.494;2022-10-04T18:42:27;20.10;48.90
33564;DHT22;19894;48.452;11.494;2022-10-04T18:44:58;20.10;48.40
33564;DHT22;19894;48.452;11.494;2022-10-04T18:47:35;20.10;48.30
33564;DHT22;19894;48.452;11.494;2022-10-04T19:07:37;20.10;48.20
33564;DHT22;19894;48.452;11.494;2022-10-04T19:10:14;20.10;48.20
33564;DHT22;19894;48.452;11.494;2022-10-04T19:13:00;20.10;48.20
33564;DHT22;19894;48.452;11.494;2022-10-04T19:16:03;20.10;48.10
33564;DHT22;19894;48.452;11.494;2022-10-04T19:21:48;20.10;48.10
33564;DHT22;19894;48.452;11.494;2022-10-04T19:24:46;20.00;48.00
33564;DHT22;19894;48.452;11.494;2022-10-04T19:27:42;20.10;48.10
33564;DHT22;19894;48.452;11.494;2022-10-04T19:30:19;20.10;48.00
33564;DHT22;19894;48.452;11.494;2022-10-04T19:33:02;20.00;47.90
33564;DHT22;19894;48.452;11.494;2022-10-04T19:46:55;20.10;47.50
33564;DHT22;19894;48.452;11.494;2022-10-04T19:55:09;20.10;47.30
33564;DHT22;19894;48.452;11.494;2022-10-04T19:57:41;20.10;47.30
33564;DHT22;19894;48.452;11.494;2022-10-04T20:00:11;20.10;47.80
33564;DHT22;19894;48.452;11.494;2022-10-04T20:02:42;20.10;47.30
33564;DHT22;19894;48.452;11.494;2022-10-04T20:05:14;20.10;47.30
33564;DHT22;19894;48.452;11.494;2022-10-04T20:07:48;20.10;47.30
33564;DHT22;19894;48.452;11.494;2022-10-04T20:10:32;20.10;47.50
33564;DHT22;19894;48.452;11.494;2022-10-04T20:17:59;20.10;47.40
33564;DHT22;19894;48.452;11.494;2022-10-04T20:23:06;20.10;47.30
33564;DHT22;19894;48.452;11.494;2022-10-04T20:30:53;20.00;47.40
33564;DHT22;19894;48.452;11.494;2022-10-04T20:38:52;20.00;47.40
33564;DHT22;19894;48.452;11.494;2022-10-04T20:43:53;20.10;47.10
33564;DHT22;19894;48.452;11.494;2022-10-04T20:46:23;20.10;47.10
33564;DHT22;19894;48.452;11.494;2022-10-04T20:48:50;20.10;46.90
33564;DHT22;19894;48.452;11.494;2022-10-04T20:51:19;20.10;46.70
33564;DHT22;19894;48.452;11.494;2022-10-04T20:53:47;20.10;46.70
33564;DHT22;19894;48.452;11.494;2022-10-04T20:56:19;20.10;46.60
33564;DHT22;19894;48.452;11.494;2022-10-04T20:58:55;20.10;46.50
33564;DHT22;19894;48.452;11.494;2022-10-04T21:01:32;20.10;46.60
33564;DHT22;19894;48.452;11.494;2022-10-04T21:06:56;20.10;46.50
33564;DHT22;19894;48.452;11.494;2022-10-04T21:09:22;20.10;46.80
33564;DHT22;19894;48.452;11.494;2022-10-04T21:11:52;20.00;46.70
33564;DHT22;19894;48.452;11.494;2022-10-04T21:16:48;20.00;46.90
33564;DHT22;19894;48.452;11.494;2022-10-04T21:22:02;20.00;46.80
33564;DHT22;19894;48.452;11.494;2022-10-04T21:27:08;20.00;46.80
33564;DHT22;19894;48.452;11.494;2022-10-04T21:29:35;20.00;46.90
33564;DHT22;19894;48.452;11.494;2022-10-04T21:32:01;20.00;46.80
33564;DHT22;19894;48.452;11.494;2022-10-04T21:34:26;20.00;46.90
33564;DHT22;19894;48.452;11.494;2022-10-04T21:36:52;20.00;46.90
33564;DHT22;19894;48.452;11.494;2022-10-04T21:39:18;20.00;46.90
33564;DHT22;19894;48.452;11.494;2022-10-04T21:41:44;20.00;46.90
33564;DHT22;19894;48.452;11.494;2022-10-04T21:44:10;20.00;46.60
33564;DHT22;19894;48.452;11.494;2022-10-04T21:46:36;20.00;46.60
33564;DHT22;19894;48.452;11.494;2022-10-04T21:49:05;20.00;46.50
33564;DHT22;19894;48.452;11.494;2022-10-04T21:51:30;20.10;46.20
33564;DHT22;19894;48.452;11.494;2022-10-04T21:53:58;20.00;46.00
33564;DHT22;19894;48.452;11.494;2022-10-04T21:56:24;20.10;46.00
33564;DHT22;19894;48.452;11.494;2022-10-04T21:58:49;20.10;45.90
33564;DHT22;19894;48.452;11.494;2022-10-04T22:01:15;20.10;45.80
33564;DHT22;19894;48.452;11.494;2022-10-04T22:03:41;20.10;45.60
33564;DHT22;19894;48.452;11.494;2022-10-04T22:06:06;20.10;45.60
33564;DHT22;19894;48.452;11.494;2022-10-04T22:08:32;20.10;45.70
33564;DHT22;19894;48.452;11.494;2022-10-04T22:10:58;20.10;45.80
33564;DHT22;19894;48.452;11.494;2022-10-04T22:13:23;20.10;45.80
33564;DHT22;19894;48.452;11.494;2022-10-04T22:15:50;20.10;45.90
33564;DHT22;19894;48.452;11.494;2022-10-04T22:18:15;20.10;46.20
33564;DHT22;19894;48.452;11.494;2022-10-04T22:20:41;20.10;45.90
33564;DHT22;19894;48.452;11.494;2022-10-04T22:23:21;20.00;46.20
33564;DHT22;19894;48.452;11.494;2022-10-04T22:25:47;20.00;46.30
33564;DHT22;19894;48.452;11.494;2022-10-04T22:28:23;20.00;46.40
33564;DHT22;19894;48.452;11.494;2022-10-04T22:30:50;20.00;46.10
33564;DHT22;19894;48.452;11.494;2022-10-04T22:33:35;20.00;46.40
33564;DHT22;19894;48.452;11.494;2022-10-04T22:36:52;20.00;46.40
33564;DHT22;19894;48.452;11.494;2022-10-04T22:39:13;20.00;46.40
33564;DHT22;19894;48.452;11.494;2022-10-04T22:41:51;20.00;46.30
33564;DHT22;19894;48.452;11.494;2022-10-04T22:44:19;20.00;46.10
33564;DHT22;19894;48.452;11.494;2022-10-04T22:46:55;20.00;46.90
33564;DHT22;19894;48.452;11.494;2022-10-04T22:49:23;20.00;46.20
33564;DHT22;19894;48.452;11.494;2022-10-04T22:51:50;20.00;45.90
33564;DHT22;19894;48.452;11.494;2022-10-04T22:54:19;20.10;46.00
33564;DHT22;19894;48.452;11.494;2022-10-04T22:56:45;20.00;45.80
33564;DHT22;19894;48.452;11.494;2022-10-04T22:59:13;20.10;45.60
33564;DHT22;19894;48.452;11.494;2022-10-04T23:01:39;20.00;45.30
33564;DHT22;19894;48.452;11.494;2022-10-04T23:04:25;20.00;45.10
33564;DHT22;19894;48.452;11.494;2022-10-04T23:06:52;20.10;45.00
33564;DHT22;19894;48.452;11.494;2022-10-04T23:09:18;20.10;45.10
33564;DHT22;19894;48.452;11.494;2022-10-04T23:11:43;20.10;45.10
33564;DHT22;19894;48.452;11.494;2022-10-04T23:14:09;20.10;45.50
33564;DHT22;19894;48.452;11.494;2022-10-04T23:16:35;20.10;45.00
33564;DHT22;19894;48.452;11.494;2022-10-04T23:19:21;20.10;45.30
33564;DHT22;19894;48.452;11.494;2022-10-04T23:21:48;20.10;45.50
33564;DHT22;19894;48.452;11.494;2022-10-04T23:24:19;20.00;45.40
33564;DHT22;19894;48.452;11.494;2022-10-04T23:26:48;20.00;45.50
33564;DHT22;19894;48.452;11.494;2022-10-04T23:29:20;20.00;45.70
33564;DHT22;19894;48.452;11.494;2022-10-04T23:31:46;20.00;45.70
33564;DHT22;19894;48.452;11.494;2022-10-04T23:36:57;20.00;45.90
33564;DHT22;19894;48.452;11.494;2022-10-04T23:39:26;20.00;45.80
33564;DHT22;19894;48.452;11.494;2022-10-04T23:41:53;20.00;45.90
33564;DHT22;19894;48.452;11.494;2022-10-04T23:44:22;20.00;45.70
33564;DHT22;19894;48.452;11.494;2022-10-04T23:46:49;20.00;45.80
33564;DHT22;19894;48.452;11.494;2022-10-04T23:49:16;20.00;45.70
33564;DHT22;19894;48.452;11.494;2022-10-04T23:51:43;20.00;46.00
33564;DHT22;19894;48.452;11.494;2022-10-04T23:54:15;20.00;45.50
33564;DHT22;19894;48.452;11.494;2022-10-04T23:56:41;20.00;45.70
33564;DHT22;19894;48.452;11.494;2022-10-04T23:59:27;20.00;45.70
